Time;durP1;ratioP1;P1;durP2;ratioP2;P2;SDS_P1;SDS_P2;PMS_P1;PMS_P2;Temp;Humidity;BMP_temperature;BMP_pressure;BME280_temperature;BME280_humidity;BME280_pressure;Samples;Min_cycle;Max_cycle;Signal;HPM_P1;HPM_P2
2023/03/19 00:01:42;;;;;;;14.95;9.00;;;;;;;;;;4995854;28;20037;-62
2023/03/19 00:04:07;;;;;;;12.35;7.72;;;;;;;;;;5031763;28;20103;-60
2023/03/19 00:06:33;;;;;;;13.88;8.30;;;;;;;;;;5031457;28;20033;-62
2023/03/19 00:08:58;;;;;;;11.45;7.60;;;;;;;;;;5012696;28;20025;-62
2023/03/19 00:11:26;;;;;;;12.15;7.25;;;;;;;;;;5031790;28;20030;-62
2023/03/19 00:13:52;;;;;;;10.15;6.43;;;;;;;;;;5032486;28;20363;-62
2023/03/19 00:16:17;;;;;;;12.05;7.00;;;;;;;;;;5032191;28;20041;-61
2023/03/19 00:18:43;;;;;;;10.35;6.78;;;;;;;;;;5030776;28;20033;-59
2023/03/19 00:21:08;;;;;;;16.35;7.40;;;;;;;;;;5031859;28;20099;-62
2023/03/19 00:23:35;;;;;;;11.93;6.57;;;;;;;;;;5031796;28;20116;-62
2023/03/19 00:26:01;;;;;;;14.90;7.43;;;;;;;;;;5013154;28;20140;-61
2023/03/19 00:28:27;;;;;;;11.43;7.53;;;;;;;;;;5030829;28;20112;-61
2023/03/19 00:30:52;;;;;;;14.18;7.97;;;;;;;;;;5030526;28;20453;-61
2023/03/19 00:33:18;;;;;;;12.65;7.68;;;;;;;;;;5031665;28;20030;-62
2023/03/19 00:35:45;;;;;;;12.05;7.05;;;;;;;;;;5031093;28;20072;-61
2023/03/19 00:38:10;;;;;;;10.63;6.85;;;;;;;;;;5030990;28;20030;-61
2023/03/19 00:40:36;;;;;;;11.00;5.93;;;;;;;;;;5014091;28;20033;-61
2023/03/19 00:43:01;;;;;;;9.50;5.50;;;;;;;;;;5015534;28;20037;-60
2023/03/19 00:45:29;;;;;;;9.27;5.00;;;;;;;;;;5007680;28;20168;-60
2023/03/19 00:47:55;;;;;;;8.98;5.00;;;;;;;;;;5022239;28;20049;-60
2023/03/19 00:50:21;;;;;;;9.10;4.90;;;;;;;;;;5031675;28;20029;-60
2023/03/19 00:52:46;;;;;;;12.05;5.10;;;;;;;;;;5030787;28;20532;-60
2023/03/19 00:55:12;;;;;;;11.52;5.15;;;;;;;;;;5031881;28;20477;-62
2023/03/19 00:57:37;;;;;;;9.75;4.53;;;;;;;;;;5030902;28;20112;-61
2023/03/19 01:00:03;;;;;;;10.27;4.95;;;;;;;;;;5030734;28;20536;-61
2023/03/19 01:02:31;;;;;;;10.13;4.72;;;;;;;;;;5030891;28;20025;-61
2023/03/19 01:04:56;;;;;;;7.40;4.20;;;;;;;;;;5028824;28;20037;-61
2023/03/19 01:07:22;;;;;;;8.55;4.15;;;;;;;;;;5010001;28;20221;-60
2023/03/19 01:09:47;;;;;;;7.72;4.57;;;;;;;;;;5028375;28;20029;-61
2023/03/19 01:12:13;;;;;;;9.20;4.65;;;;;;;;;;5027729;28;20045;-61
2023/03/19 01:14:38;;;;;;;9.77;4.78;;;;;;;;;;5026996;28;20026;-61
2023/03/19 01:17:04;;;;;;;9.88;4.95;;;;;;;;;;5028460;28;20041;-60
2023/03/19 01:19:29;;;;;;;8.45;4.95;;;;;;;;;;5027967;28;20087;-60
2023/03/19 01:21:54;;;;;;;7.95;4.72;;;;;;;;;;5029594;28;20091;-60
2023/03/19 01:24:20;;;;;;;7.80;4.82;;;;;;;;;;5021074;28;20029;-62
2023/03/19 01:26:46;;;;;;;7.60;5.07;;;;;;;;;;5030257;28;20041;-60
2023/03/19 01:29:11;;;;;;;8.10;5.53;;;;;;;;;;5030046;28;20454;-62
2023/03/19 01:31:36;;;;;;;10.95;5.30;;;;;;;;;;5031237;28;20022;-60
2023/03/19 01:34:02;;;;;;;7.70;4.88;;;;;;;;;;5046008;28;20116;-60
2023/03/19 01:36:28;;;;;;;8.27;5.13;;;;;;;;;;5043856;28;20033;-62
2023/03/19 01:38:54;;;;;;;12.35;6.00;;;;;;;;;;5029726;28;20393;-61
2023/03/19 01:41:22;;;;;;;8.85;5.63;;;;;;;;;;5029641;28;20068;-61
2023/03/19 01:43:47;;;;;;;10.57;5.82;;;;;;;;;;5028419;28;20025;-61
2023/03/19 01:46:35;;;;;;;12.70;5.97;;;;;;;;;;5029914;28;20046;-60
2023/03/19 01:49:05;;;;;;;10.60;6.28;;;;;;;;;;5031177;28;20036;-60
2023/03/19 01:51:42;;;;;;;10.18;6.13;;;;;;;;;;5033004;28;20042;-60
2023/03/19 01:54:14;;;;;;;10.60;5.80;;;;;;;;;;5032453;28;20108;-60
2023/03/19 01:56:43;;;;;;;11.18;6.25;;;;;;;;;;5032877;28;20455;-60
2023/03/19 01:59:22;;;;;;;12.55;6.63;;;;;;;;;;5028708;28;20026;-60
2023/03/19 02:02:02;;;;;;;10.30;6.90;;;;;;;;;;5015805;28;20030;-61
2023/03/19 02:04:30;;;;;;;11.05;7.43;;;;;;;;;;5032817;28;20063;-61
2023/03/19 02:06:57;;;;;;;17.00;8.07;;;;;;;;;;5032244;28;20034;-60
2023/03/19 02:09:25;;;;;;;13.80;7.78;;;;;;;;;;5013058;28;20029;-61
2023/03/19 02:11:51;;;;;;;11.55;8.02;;;;;;;;;;5032685;28;20038;-61
2023/03/19 02:14:17;;;;;;;12.07;7.97;;;;;;;;;;5036717;28;20029;-60
2023/03/19 02:16:42;;;;;;;12.63;7.95;;;;;;;;;;5033660;28;20040;-60
2023/03/19 02:19:22;;;;;;;13.60;8.25;;;;;;;;;;5030470;28;20037;-60
2023/03/19 02:21:48;;;;;;;13.30;8.32;;;;;;;;;;5033366;28;20033;-60
2023/03/19 02:24:21;;;;;;;17.17;9.10;;;;;;;;;;5030543;28;20038;-60
2023/03/19 02:26:46;;;;;;;18.20;9.85;;;;;;;;;;5033514;28;20029;-61
2023/03/19 02:29:12;;;;;;;13.80;9.13;;;;;;;;;;5031114;28;20462;-61
2023/03/19 02:31:38;;;;;;;15.80;9.00;;;;;;;;;;5032744;28;20489;-60
2023/03/19 02:34:24;;;;;;;13.82;8.90;;;;;;;;;;5022160;28;20041;-60
2023/03/19 02:37:12;;;;;;;13.50;8.85;;;;;;;;;;5031638;28;20492;-62
2023/03/19 02:39:45;;;;;;;13.63;8.10;;;;;;;;;;5032139;28;20049;-62
2023/03/19 02:42:13;;;;;;;13.95;8.88;;;;;;;;;;5034300;28;20668;-61
2023/03/19 02:44:39;;;;;;;13.60;8.63;;;;;;;;;;5032027;28;20032;-61
2023/03/19 02:47:04;;;;;;;14.32;8.70;;;;;;;;;;5029517;28;20046;-60
2023/03/19 02:49:30;;;;;;;12.38;8.10;;;;;;;;;;5032752;28;20044;-60
2023/03/19 02:51:55;;;;;;;14.30;8.70;;;;;;;;;;5045670;28;20037;-61
2023/03/19 02:54:21;;;;;;;14.95;8.75;;;;;;;;;;5044317;28;20112;-60
2023/03/19 02:56:46;;;;;;;13.07;8.98;;;;;;;;;;5032260;28;20457;-61
2023/03/19 02:59:12;;;;;;;12.23;8.52;;;;;;;;;;5027643;28;20033;-61
2023/03/19 03:01:37;;;;;;;14.40;9.15;;;;;;;;;;5032358;28;20466;-60
2023/03/19 03:04:03;;;;;;;12.18;8.88;;;;;;;;;;5031025;28;20048;-61
2023/03/19 03:06:29;;;;;;;15.68;8.95;;;;;;;;;;5013855;28;20033;-61
2023/03/19 03:08:55;;;;;;;13.00;9.00;;;;;;;;;;5032078;28;20379;-60
2023/03/19 03:11:21;;;;;;;13.20;8.60;;;;;;;;;;5041040;28;20116;-61
2023/03/19 03:13:47;;;;;;;13.68;8.82;;;;;;;;;;5031706;28;20355;-61
2023/03/19 03:16:12;;;;;;;14.18;8.93;;;;;;;;;;5030676;28;20043;-61
2023/03/19 03:18:38;;;;;;;13.90;9.60;;;;;;;;;;5036543;28;20048;-61
2023/03/19 03:21:03;;;;;;;15.57;9.02;;;;;;;;;;5014798;28;20029;-61
2023/03/19 03:23:28;;;;;;;15.85;8.88;;;;;;;;;;5031523;28;20462;-61
2023/03/19 03:25:54;;;;;;;14.65;9.20;;;;;;;;;;5035090;28;20029;-61
2023/03/19 03:28:19;;;;;;;12.13;8.80;;;;;;;;;;5029739;28;20061;-60
2023/03/19 03:30:46;;;;;;;12.77;8.50;;;;;;;;;;5031469;28;20033;-61
2023/03/19 03:33:11;;;;;;;11.55;8.40;;;;;;;;;;5030794;28;20052;-61
2023/03/19 03:35:37;;;;;;;17.27;9.02;;;;;;;;;;5031858;28;20029;-60
2023/03/19 03:38:03;;;;;;;12.77;8.63;;;;;;;;;;5030569;28;20033;-60
2023/03/19 03:40:29;;;;;;;14.63;8.98;;;;;;;;;;5030331;28;20033;-60
2023/03/19 03:42:54;;;;;;;12.18;8.55;;;;;;;;;;5030626;28;20036;-60
2023/03/19 03:45:20;;;;;;;14.68;8.75;;;;;;;;;;5030771;28;20041;-60
2023/03/19 03:47:46;;;;;;;13.02;8.32;;;;;;;;;;5030940;28;20032;-60
2023/03/19 03:50:12;;;;;;;13.38;8.80;;;;;;;;;;5012828;28;20400;-60
2023/03/19 03:52:39;;;;;;;16.67;9.27;;;;;;;;;;5032028;28;20072;-60
2023/03/19 03:55:06;;;;;;;13.95;8.70;;;;;;;;;;5029888;28;20045;-61
2023/03/19 03:57:31;;;;;;;14.13;8.98;;;;;;;;;;5031697;28;20140;-60
2023/03/19 03:59:57;;;;;;;12.98;8.15;;;;;;;;;;5019629;28;20490;-61
2023/03/19 04:02:23;;;;;;;13.90;8.57;;;;;;;;;;5019474;28;20898;-60
2023/03/19 04:04:49;;;;;;;13.13;8.68;;;;;;;;;;5028197;28;20029;-60
2023/03/19 04:07:15;;;;;;;13.35;8.60;;;;;;;;;;5030539;28;20179;-60
2023/03/19 04:09:40;;;;;;;13.48;8.30;;;;;;;;;;5030109;28;20064;-60
2023/03/19 04:12:06;;;;;;;12.15;7.95;;;;;;;;;;5031535;28;20519;-60
2023/03/19 04:14:31;;;;;;;13.38;8.80;;;;;;;;;;5030709;28;20075;-62
2023/03/19 04:16:57;;;;;;;14.55;8.52;;;;;;;;;;5031100;28;20124;-62
2023/03/19 04:19:22;;;;;;;17.73;8.77;;;;;;;;;;5030053;28;20060;-62
2023/03/19 04:21:47;;;;;;;14.10;8.50;;;;;;;;;;5031434;28;20436;-62
2023/03/19 04:24:14;;;;;;;15.68;8.60;;;;;;;;;;5029496;28;20537;-62
2023/03/19 04:26:40;;;;;;;13.27;8.38;;;;;;;;;;5029997;28;20105;-62
2023/03/19 04:29:07;;;;;;;15.52;7.95;;;;;;;;;;5030445;28;20108;-62
2023/03/19 04:31:33;;;;;;;17.85;7.70;;;;;;;;;;5031970;28;20445;-62
2023/03/19 04:33:59;;;;;;;11.38;7.60;;;;;;;;;;5027666;28;20511;-61
2023/03/19 04:36:24;;;;;;;11.98;7.40;;;;;;;;;;5030983;28;20034;-62
2023/03/19 04:38:50;;;;;;;14.35;7.78;;;;;;;;;;5031001;28;20128;-61
2023/03/19 04:41:15;;;;;;;12.15;7.63;;;;;;;;;;5030155;28;20037;-62
2023/03/19 04:43:41;;;;;;;13.50;8.68;;;;;;;;;;5023741;28;20171;-61
2023/03/19 04:46:09;;;;;;;14.52;8.10;;;;;;;;;;5027456;28;20050;-62
2023/03/19 04:48:34;;;;;;;12.43;7.60;;;;;;;;;;5031260;28;20076;-62
2023/03/19 04:51:03;;;;;;;12.63;7.63;;;;;;;;;;5030474;28;20414;-60
2023/03/19 04:53:28;;;;;;;14.20;7.63;;;;;;;;;;5031789;28;20042;-62
2023/03/19 04:55:54;;;;;;;14.35;7.25;;;;;;;;;;5029561;28;20041;-62
2023/03/19 04:58:20;;;;;;;12.95;7.15;;;;;;;;;;5030442;28;20079;-62
2023/03/19 05:00:46;;;;;;;11.45;6.57;;;;;;;;;;5027018;28;20037;-61
2023/03/19 05:03:13;;;;;;;12.98;6.95;;;;;;;;;;5027838;28;20547;-61
2023/03/19 05:05:38;;;;;;;10.13;6.55;;;;;;;;;;5008215;28;20108;-61
2023/03/19 05:08:03;;;;;;;12.45;6.55;;;;;;;;;;5025840;28;20083;-61
2023/03/19 05:10:29;;;;;;;13.13;6.25;;;;;;;;;;5029624;28;20047;-62
2023/03/19 05:12:54;;;;;;;14.90;6.43;;;;;;;;;;5033197;28;20511;-62
2023/03/19 05:15:20;;;;;;;9.57;5.70;;;;;;;;;;5035476;28;20035;-61
2023/03/19 05:17:45;;;;;;;12.68;6.30;;;;;;;;;;5031787;28;20028;-61
2023/03/19 05:20:11;;;;;;;10.07;6.05;;;;;;;;;;5031002;28;20095;-61
2023/03/19 05:22:37;;;;;;;11.48;5.63;;;;;;;;;;5030047;28;20032;-62
2023/03/19 05:25:02;;;;;;;8.98;5.88;;;;;;;;;;5029104;28;20363;-61
2023/03/19 05:27:28;;;;;;;10.85;5.90;;;;;;;;;;5035103;28;20033;-61
2023/03/19 05:29:53;;;;;;;11.30;5.57;;;;;;;;;;5032434;28;20470;-60
2023/03/19 05:32:20;;;;;;;10.25;5.65;;;;;;;;;;5033690;28;20064;-61
2023/03/19 05:34:45;;;;;;;9.50;5.03;;;;;;;;;;5030734;28;20025;-61
2023/03/19 05:37:11;;;;;;;9.88;6.35;;;;;;;;;;5032391;28;20099;-61
2023/03/19 05:39:36;;;;;;;7.93;4.78;;;;;;;;;;5047880;28;20078;-61
2023/03/19 05:42:01;;;;;;;7.97;4.38;;;;;;;;;;5034464;28;20065;-61
2023/03/19 05:44:27;;;;;;;11.35;4.82;;;;;;;;;;5031859;28;20493;-61
2023/03/19 05:46:53;;;;;;;8.07;4.50;;;;;;;;;;5031753;28;20037;-61
2023/03/19 05:49:18;;;;;;;9.02;4.95;;;;;;;;;;5032924;28;20484;-61
2023/03/19 05:51:43;;;;;;;9.13;5.10;;;;;;;;;;5034174;28;20029;-61
2023/03/19 05:54:09;;;;;;;7.63;4.30;;;;;;;;;;5029559;28;20041;-61
2023/03/19 05:56:35;;;;;;;6.55;3.85;;;;;;;;;;5034124;28;20144;-62
2023/03/19 05:59:00;;;;;;;10.13;4.00;;;;;;;;;;5033558;28;20033;-60
2023/03/19 06:01:26;;;;;;;7.25;4.50;;;;;;;;;;5030195;28;20044;-60
2023/03/19 06:03:51;;;;;;;7.35;4.47;;;;;;;;;;5032076;28;20036;-60
2023/03/19 06:06:16;;;;;;;9.45;5.07;;;;;;;;;;5039089;28;20036;-60
2023/03/19 06:08:42;;;;;;;6.93;5.07;;;;;;;;;;5037162;28;20036;-60
2023/03/19 06:11:08;;;;;;;11.13;5.35;;;;;;;;;;5028672;28;20500;-60
2023/03/19 06:13:33;;;;;;;8.20;5.53;;;;;;;;;;5032820;28;20029;-60
2023/03/19 06:16:00;;;;;;;9.02;5.60;;;;;;;;;;5033593;28;20100;-60
2023/03/19 06:18:25;;;;;;;9.73;5.60;;;;;;;;;;5032457;28;20233;-60
2023/03/19 06:20:51;;;;;;;9.57;5.88;;;;;;;;;;5031566;28;20360;-60
2023/03/19 06:23:17;;;;;;;9.70;5.85;;;;;;;;;;5032618;28;20056;-60
2023/03/19 06:25:43;;;;;;;10.63;6.47;;;;;;;;;;5030799;28;20374;-60
2023/03/19 06:28:08;;;;;;;10.23;6.00;;;;;;;;;;5033210;28;20033;-60
2023/03/19 06:30:34;;;;;;;8.88;6.03;;;;;;;;;;5014021;28;20288;-62
2023/03/19 06:33:00;;;;;;;11.27;6.72;;;;;;;;;;5031979;28;20520;-61
2023/03/19 06:35:25;;;;;;;8.82;6.05;;;;;;;;;;5026233;28;20773;-61
2023/03/19 06:37:51;;;;;;;11.57;6.57;;;;;;;;;;5033723;28;20033;-62
2023/03/19 06:40:18;;;;;;;9.65;6.40;;;;;;;;;;5030953;28;20393;-61
2023/03/19 06:42:45;;;;;;;11.13;6.25;;;;;;;;;;5031204;28;20033;-63
2023/03/19 06:45:12;;;;;;;12.30;6.88;;;;;;;;;;5031724;28;20167;-61
2023/03/19 06:47:40;;;;;;;10.32;7.15;;;;;;;;;;5033150;28;20025;-61
2023/03/19 06:50:06;;;;;;;16.92;7.78;;;;;;;;;;5032296;28;20466;-62
2023/03/19 06:52:31;;;;;;;11.40;7.53;;;;;;;;;;5029641;28;20076;-61
2023/03/19 06:54:56;;;;;;;12.45;7.97;;;;;;;;;;5034445;28;20424;-61
2023/03/19 06:57:22;;;;;;;12.30;7.88;;;;;;;;;;5032280;28;20040;-61
2023/03/19 06:59:47;;;;;;;14.77;8.38;;;;;;;;;;5031638;28;20069;-61
2023/03/19 07:02:13;;;;;;;15.45;8.15;;;;;;;;;;5031568;28;20481;-61
2023/03/19 07:04:38;;;;;;;17.13;8.00;;;;;;;;;;5045013;28;20431;-60
2023/03/19 07:07:04;;;;;;;11.05;7.30;;;;;;;;;;5047404;28;20044;-60
2023/03/19 07:09:30;;;;;;;12.75;7.55;;;;;;;;;;5032472;28;20142;-61
2023/03/19 07:11:56;;;;;;;13.85;7.68;;;;;;;;;;5033375;28;20110;-61
2023/03/19 07:14:22;;;;;;;13.55;8.48;;;;;;;;;;5032244;28;20065;-60
2023/03/19 07:16:48;;;;;;;14.50;7.93;;;;;;;;;;5032966;28;20044;-61
2023/03/19 07:19:13;;;;;;;18.10;8.93;;;;;;;;;;5034087;28;20033;-64
2023/03/19 07:21:39;;;;;;;12.38;8.10;;;;;;;;;;5032880;28;20032;-65
2023/03/19 07:24:04;;;;;;;15.98;7.97;;;;;;;;;;5034231;28;20069;-65
2023/03/19 07:26:30;;;;;;;14.07;8.35;;;;;;;;;;5014647;28;20128;-64
2023/03/19 07:28:55;;;;;;;13.18;7.85;;;;;;;;;;5032534;28;20033;-64
2023/03/19 07:31:21;;;;;;;12.18;7.93;;;;;;;;;;5031596;28;20037;-62
2023/03/19 07:33:46;;;;;;;10.60;7.95;;;;;;;;;;5032200;28;20044;-63
2023/03/19 07:36:11;;;;;;;13.75;7.55;;;;;;;;;;5019239;28;20454;-62
2023/03/19 07:38:37;;;;;;;10.43;7.65;;;;;;;;;;5053047;28;20029;-62
2023/03/19 07:41:03;;;;;;;13.10;7.40;;;;;;;;;;5048269;28;20033;-62
2023/03/19 07:43:29;;;;;;;13.50;7.95;;;;;;;;;;5032016;28;20083;-62
2023/03/19 07:45:54;;;;;;;12.50;8.02;;;;;;;;;;5034837;28;20057;-62
2023/03/19 07:48:19;;;;;;;11.15;7.53;;;;;;;;;;5050955;28;20041;-63
2023/03/19 07:50:45;;;;;;;12.77;7.82;;;;;;;;;;5042776;28;20322;-63
2023/03/19 07:53:10;;;;;;;11.98;7.15;;;;;;;;;;5014407;28;20029;-63
2023/03/19 07:55:36;;;;;;;12.65;7.25;;;;;;;;;;5032461;28;20561;-63
2023/03/19 07:58:02;;;;;;;15.93;7.95;;;;;;;;;;5032615;28;20033;-63
2023/03/19 08:00:27;;;;;;;13.32;7.30;;;;;;;;;;5032010;28;20124;-63
2023/03/19 08:02:53;;;;;;;10.57;7.18;;;;;;;;;;5032434;28;20473;-63
2023/03/19 08:05:18;;;;;;;14.30;7.22;;;;;;;;;;5032318;28;20026;-65
2023/03/19 08:07:44;;;;;;;10.60;6.85;;;;;;;;;;5031961;28;20033;-65
2023/03/19 08:10:10;;;;;;;12.23;7.32;;;;;;;;;;5032617;28;20097;-66
2023/03/19 08:12:39;;;;;;;10.50;6.95;;;;;;;;;;5028828;28;20032;-65
2023/03/19 08:15:07;;;;;;;9.07;6.68;;;;;;;;;;5032037;28;20041;-65
2023/03/19 08:17:37;;;;;;;12.50;7.65;;;;;;;;;;5030702;28;20156;-66
2023/03/19 08:20:11;;;;;;;12.55;6.95;;;;;;;;;;5032301;28;20044;-65
2023/03/19 08:22:37;;;;;;;11.23;6.85;;;;;;;;;;5031016;28;20099;-66
2023/03/19 08:25:04;;;;;;;10.25;7.00;;;;;;;;;;5031389;28;20425;-66
2023/03/19 08:27:30;;;;;;;10.57;7.40;;;;;;;;;;5044831;28;20650;-67
2023/03/19 08:29:56;;;;;;;16.40;9.45;;;;;;;;;;5038684;28;20029;-66
2023/03/19 08:32:22;;;;;;;14.32;7.65;;;;;;;;;;5030624;28;20033;-66
2023/03/19 08:34:47;;;;;;;15.48;8.65;;;;;;;;;;5031366;28;20103;-65
2023/03/19 08:37:13;;;;;;;11.48;7.03;;;;;;;;;;5030940;28;20108;-65
2023/03/19 08:39:38;;;;;;;10.48;7.00;;;;;;;;;;5030778;28;20044;-65
2023/03/19 08:42:04;;;;;;;10.88;6.93;;;;;;;;;;5031973;28;20041;-65
2023/03/19 08:44:29;;;;;;;11.07;7.60;;;;;;;;;;5030401;28;20174;-65
2023/03/19 08:46:54;;;;;;;10.32;6.90;;;;;;;;;;5031294;28;20477;-65
2023/03/19 08:49:20;;;;;;;10.07;6.50;;;;;;;;;;5030743;28;20034;-65
2023/03/19 08:51:45;;;;;;;10.43;6.88;;;;;;;;;;5031447;28;20136;-66
2023/03/19 08:54:12;;;;;;;10.77;6.68;;;;;;;;;;5031305;28;20459;-64
2023/03/19 08:56:38;;;;;;;10.43;6.70;;;;;;;;;;5030694;28;20025;-66
2023/03/19 08:59:04;;;;;;;12.45;6.72;;;;;;;;;;5031420;28;20455;-65
2023/03/19 09:01:29;;;;;;;10.55;7.00;;;;;;;;;;5030151;28;20104;-65
2023/03/19 09:03:55;;;;;;;10.45;6.70;;;;;;;;;;5031476;28;20037;-65
2023/03/19 09:06:20;;;;;;;9.73;6.35;;;;;;;;;;5029147;28;20079;-67
2023/03/19 09:08:46;;;;;;;10.23;6.40;;;;;;;;;;5028178;28;20037;-64
2023/03/19 09:11:13;;;;;;;10.18;6.30;;;;;;;;;;5031042;28;20029;-65
2023/03/19 09:13:38;;;;;;;10.30;6.60;;;;;;;;;;5030326;28;20037;-64
2023/03/19 09:16:05;;;;;;;10.73;6.13;;;;;;;;;;5029740;28;20033;-65
2023/03/19 09:18:31;;;;;;;8.93;5.75;;;;;;;;;;5030520;28;20470;-65
2023/03/19 09:20:56;;;;;;;7.68;5.50;;;;;;;;;;5013607;28;20055;-65
2023/03/19 09:23:22;;;;;;;9.15;5.57;;;;;;;;;;5030786;28;20033;-65
2023/03/19 09:25:48;;;;;;;9.15;5.35;;;;;;;;;;5010252;28;20394;-64
2023/03/19 09:28:13;;;;;;;10.65;5.40;;;;;;;;;;5028741;28;20394;-64
2023/03/19 09:30:39;;;;;;;8.20;5.15;;;;;;;;;;5029204;28;20394;-68
2023/03/19 09:33:05;;;;;;;7.25;5.10;;;;;;;;;;5031674;28;20033;-65
2023/03/19 09:35:31;;;;;;;9.23;4.97;;;;;;;;;;5030600;28;20037;-67
2023/03/19 09:38:00;;;;;;;7.50;4.78;;;;;;;;;;5031469;28;20107;-66
2023/03/19 09:40:36;;;;;;;7.57;5.13;;;;;;;;;;5030994;28;20073;-66
2023/03/19 09:43:30;;;;;;;7.65;5.13;;;;;;;;;;5032015;28;20026;-66
2023/03/19 09:46:00;;;;;;;8.00;4.55;;;;;;;;;;5030875;28;20053;-65
2023/03/19 09:48:45;;;;;;;7.60;5.13;;;;;;;;;;5031310;28;20029;-65
2023/03/19 09:51:20;;;;;;;9.63;5.80;;;;;;;;;;5032004;28;20056;-64
2023/03/19 09:53:58;;;;;;;7.55;5.13;;;;;;;;;;5030555;28;20033;-64
2023/03/19 09:56:33;;;;;;;9.80;5.18;;;;;;;;;;5031241;28;20029;-63
2023/03/19 09:59:00;;;;;;;9.65;5.63;;;;;;;;;;5012358;28;20046;-63
2023/03/19 10:01:32;;;;;;;7.90;5.43;;;;;;;;;;5030603;28;20112;-63
2023/03/19 10:04:28;;;;;;;7.45;5.30;;;;;;;;;;5032254;28;20033;-64
2023/03/19 10:07:05;;;;;;;7.43;5.28;;;;;;;;;;5011459;28;20030;-63
2023/03/19 10:09:41;;;;;;;7.47;5.28;;;;;;;;;;5010591;28;20037;-65
2023/03/19 10:12:16;;;;;;;6.72;4.82;;;;;;;;;;5013752;28;20079;-63
2023/03/19 10:14:59;;;;;;;7.22;5.10;;;;;;;;;;5032796;28;20044;-62
2023/03/19 10:18:01;;;;;;;7.43;5.10;;;;;;;;;;5034064;28;20471;-63
2023/03/19 10:20:39;;;;;;;7.72;5.38;;;;;;;;;;5033644;28;20056;-62
2023/03/19 10:23:43;;;;;;;6.57;4.78;;;;;;;;;;5032730;28;20037;-63
2023/03/19 10:26:13;;;;;;;7.43;4.97;;;;;;;;;;5034380;28;20033;-63
2023/03/19 10:28:42;;;;;;;8.88;4.47;;;;;;;;;;5033279;28;20594;-63
2023/03/19 10:31:27;;;;;;;7.90;4.68;;;;;;;;;;5033470;28;20083;-63
2023/03/19 10:34:10;;;;;;;8.07;4.55;;;;;;;;;;5034270;28;20061;-63
2023/03/19 10:36:36;;;;;;;6.53;4.75;;;;;;;;;;5033377;28;20034;-63
2023/03/19 10:39:04;;;;;;;8.02;4.80;;;;;;;;;;5034165;28;20083;-63
2023/03/19 10:41:38;;;;;;;7.45;4.82;;;;;;;;;;5033279;28;20108;-63
2023/03/19 10:44:28;;;;;;;6.60;4.80;;;;;;;;;;5034138;28;20450;-63
2023/03/19 10:46:56;;;;;;;6.45;4.65;;;;;;;;;;5031698;28;20045;-63
2023/03/19 10:49:22;;;;;;;6.32;4.32;;;;;;;;;;5033183;28;20030;-62
2023/03/19 10:51:47;;;;;;;8.55;4.75;;;;;;;;;;5033759;28;20035;-63
2023/03/19 10:54:24;;;;;;;7.03;4.55;;;;;;;;;;5032720;28;20030;-64
2023/03/19 10:56:53;;;;;;;6.28;4.25;;;;;;;;;;5033788;28;20470;-63
2023/03/19 10:59:39;;;;;;;6.85;4.30;;;;;;;;;;5033646;28;20056;-63
2023/03/19 11:02:30;;;;;;;7.97;4.30;;;;;;;;;;5034266;28;20080;-63
2023/03/19 11:05:13;;;;;;;6.70;5.05;;;;;;;;;;5033145;28;20389;-64
2023/03/19 11:07:39;;;;;;;7.95;4.60;;;;;;;;;;5032492;28;20852;-64
2023/03/19 11:10:12;;;;;;;6.95;4.50;;;;;;;;;;5033459;28;20419;-64
2023/03/19 11:12:38;;;;;;;6.03;4.50;;;;;;;;;;5032799;28;20036;-65
2023/03/19 11:15:17;;;;;;;7.68;4.70;;;;;;;;;;5033521;28;20033;-63
2023/03/19 11:17:48;;;;;;;6.18;4.50;;;;;;;;;;5031500;28;20025;-64
2023/03/19 11:20:14;;;;;;;5.82;4.10;;;;;;;;;;5015730;28;20091;-64
2023/03/19 11:22:40;;;;;;;6.20;4.22;;;;;;;;;;5013618;28;20375;-65
2023/03/19 11:25:19;;;;;;;5.30;4.65;;;;;;;;;;5033357;28;20039;-64
2023/03/19 11:28:16;;;;;;;6.70;4.40;;;;;;;;;;5032457;28;20040;-63
2023/03/19 11:31:14;;;;;;;6.45;4.32;;;;;;;;;;5032534;28;20092;-64
2023/03/19 11:33:58;;;;;;;6.55;3.95;;;;;;;;;;5030843;28;20037;-64
2023/03/19 11:36:57;;;;;;;5.22;3.55;;;;;;;;;;5032419;28;20029;-64
2023/03/19 11:39:27;;;;;;;5.82;4.18;;;;;;;;;;5032343;28;20045;-64
2023/03/19 11:42:15;;;;;;;5.30;4.23;;;;;;;;;;5015269;28;20069;-63
2023/03/19 11:45:13;;;;;;;4.13;2.90;;;;;;;;;;5032093;28;20025;-64
2023/03/19 11:47:59;;;;;;;4.60;3.25;;;;;;;;;;4992190;28;20046;-64
2023/03/19 11:50:46;;;;;;;4.40;2.40;;;;;;;;;;5012376;28;20055;-64
2023/03/19 11:53:36;;;;;;;3.72;2.38;;;;;;;;;;5013102;28;20069;-63
2023/03/19 11:56:20;;;;;;;3.85;2.40;;;;;;;;;;5013160;28;20038;-64
2023/03/19 11:58:49;;;;;;;3.15;2.00;;;;;;;;;;5012125;28;20037;-64
2023/03/19 12:01:14;;;;;;;4.45;2.50;;;;;;;;;;5030265;28;20025;-64
2023/03/19 12:03:53;;;;;;;2.60;1.80;;;;;;;;;;5031615;28;20109;-65
2023/03/19 12:06:43;;;;;;;3.80;2.08;;;;;;;;;;5032491;28;20029;-64
2023/03/19 12:09:16;;;;;;;3.03;2.22;;;;;;;;;;5032560;28;20091;-65
2023/03/19 12:11:53;;;;;;;3.85;2.17;;;;;;;;;;5031653;28;20039;-64
2023/03/19 12:14:37;;;;;;;3.80;2.63;;;;;;;;;;5031401;28;20030;-65
2023/03/19 12:17:20;;;;;;;3.92;2.60;;;;;;;;;;5032382;28;20049;-64
2023/03/19 12:20:03;;;;;;;3.70;2.50;;;;;;;;;;5029048;28;20113;-64
2023/03/19 12:22:37;;;;;;;5.50;2.13;;;;;;;;;;5031413;28;20038;-62
2023/03/19 12:25:30;;;;;;;3.40;2.47;;;;;;;;;;5032013;28;20030;-63
2023/03/19 12:28:08;;;;;;;7.50;3.30;;;;;;;;;;5032087;28;20120;-63
2023/03/19 12:30:52;;;;;;;5.47;3.38;;;;;;;;;;5031342;28;20029;-63
2023/03/19 12:33:35;;;;;;;4.82;3.78;;;;;;;;;;5031881;28;20029;-62
2023/03/19 12:36:03;;;;;;;7.60;4.20;;;;;;;;;;5029685;28;20132;-62
2023/03/19 12:38:37;;;;;;;7.55;4.28;;;;;;;;;;5030641;28;20069;-63
2023/03/19 12:41:09;;;;;;;7.28;4.78;;;;;;;;;;5031962;28;20029;-62
2023/03/19 12:43:44;;;;;;;9.35;5.78;;;;;;;;;;5031369;28;20037;-62
2023/03/19 12:46:16;;;;;;;9.70;5.70;;;;;;;;;;5031730;28;20053;-62
2023/03/19 12:48:59;;;;;;;9.38;5.55;;;;;;;;;;5029312;28;20040;-62
2023/03/19 12:51:36;;;;;;;11.45;6.35;;;;;;;;;;5031481;28;20449;-62
2023/03/19 12:54:10;;;;;;;7.53;5.35;;;;;;;;;;5031695;28;20035;-63
2023/03/19 12:56:46;;;;;;;7.75;4.55;;;;;;;;;;5030970;28;20112;-64
2023/03/19 12:59:29;;;;;;;6.95;4.47;;;;;;;;;;5014105;28;20132;-63
2023/03/19 13:02:18;;;;;;;6.38;4.18;;;;;;;;;;5014087;28;20577;-63
2023/03/19 13:05:22;;;;;;;6.20;3.72;;;;;;;;;;5002922;28;20057;-64
2023/03/19 13:08:22;;;;;;;5.57;3.53;;;;;;;;;;5011163;28;20080;-64
2023/03/19 13:10:47;;;;;;;5.80;3.70;;;;;;;;;;4988985;28;20022;-64
2023/03/19 13:13:37;;;;;;;6.35;4.10;;;;;;;;;;5007281;28;20085;-64
2023/03/19 13:16:23;;;;;;;6.65;4.28;;;;;;;;;;5011893;28;20064;-64
2023/03/19 13:19:44;;;;;;;6.82;4.57;;;;;;;;;;5025902;28;20048;-65
2023/03/19 13:22:16;;;;;;;10.18;5.88;;;;;;;;;;4951361;29;20467;-64
2023/03/19 13:24:45;;;;;;;8.10;5.68;;;;;;;;;;4950488;29;20369;-63
2023/03/19 13:27:19;;;;;;;8.88;5.95;;;;;;;;;;5003205;28;20076;-65
2023/03/19 13:30:14;;;;;;;9.75;6.22;;;;;;;;;;5030256;28;20036;-64
2023/03/19 13:33:05;;;;;;;8.85;5.60;;;;;;;;;;5012073;28;20470;-64
2023/03/19 13:35:45;;;;;;;10.13;6.63;;;;;;;;;;5030958;28;20038;-63
2023/03/19 13:38:31;;;;;;;10.55;5.90;;;;;;;;;;5031068;28;20382;-64
2023/03/19 13:40:58;;;;;;;9.30;6.10;;;;;;;;;;5030155;28;20033;-63
2023/03/19 13:43:26;;;;;;;11.27;6.07;;;;;;;;;;5027173;28;20033;-74
2023/03/19 13:46:14;;;;;;;10.75;7.15;;;;;;;;;;5028805;28;20353;-65
2023/03/19 13:48:49;;;;;;;8.55;6.07;;;;;;;;;;5014740;28;20099;-64
2023/03/19 13:51:14;;;;;;;10.40;6.40;;;;;;;;;;5018586;28;20401;-65
2023/03/19 13:53:51;;;;;;;9.40;6.07;;;;;;;;;;5017077;28;20033;-64
2023/03/19 13:56:16;;;;;;;9.10;6.07;;;;;;;;;;5035011;28;20037;-64
2023/03/19 13:58:51;;;;;;;8.55;5.82;;;;;;;;;;5015946;28;20386;-64
2023/03/19 14:01:26;;;;;;;8.75;5.78;;;;;;;;;;5034966;28;20029;-65
2023/03/19 14:03:57;;;;;;;9.15;6.38;;;;;;;;;;5033178;28;20050;-65
2023/03/19 14:06:37;;;;;;;10.35;6.28;;;;;;;;;;5027818;28;20036;-64
2023/03/19 14:09:04;;;;;;;9.70;6.50;;;;;;;;;;5014898;28;20114;-64
2023/03/19 14:11:34;;;;;;;9.65;6.35;;;;;;;;;;4997229;28;20037;-64
2023/03/19 14:14:03;;;;;;;10.27;5.90;;;;;;;;;;5014692;28;20080;-64
2023/03/19 14:16:33;;;;;;;9.82;6.10;;;;;;;;;;5014987;28;20038;-65
2023/03/19 14:19:01;;;;;;;10.35;6.10;;;;;;;;;;5033269;28;20041;-64
2023/03/19 14:22:02;;;;;;;9.43;5.75;;;;;;;;;;5033987;28;20029;-64
2023/03/19 14:24:40;;;;;;;8.90;5.90;;;;;;;;;;5034532;28;20378;-64
2023/03/19 14:27:31;;;;;;;7.82;4.65;;;;;;;;;;5034314;28;20037;-64
2023/03/19 14:30:00;;;;;;;6.35;4.53;;;;;;;;;;5016162;28;20038;-64
2023/03/19 14:32:34;;;;;;;8.98;4.78;;;;;;;;;;5034785;28;20125;-64
2023/03/19 14:35:04;;;;;;;6.85;4.47;;;;;;;;;;5034228;28;20459;-64
2023/03/19 14:37:36;;;;;;;7.10;4.17;;;;;;;;;;5034214;28;20117;-65
2023/03/19 14:40:09;;;;;;;6.18;4.50;;;;;;;;;;5016257;28;20083;-65
2023/03/19 14:42:55;;;;;;;5.88;4.32;;;;;;;;;;5024654;28;20025;-64
2023/03/19 14:46:05;;;;;;;5.95;3.90;;;;;;;;;;4983409;28;20041;-64
2023/03/19 14:48:52;;;;;;;7.65;5.10;;;;;;;;;;5012194;28;20478;-64
2023/03/19 14:51:41;;;;;;;7.72;5.40;;;;;;;;;;5033937;28;20036;-64
2023/03/19 14:54:34;;;;;;;6.28;4.70;;;;;;;;;;5034332;28;20381;-64
2023/03/19 14:57:06;;;;;;;7.00;5.20;;;;;;;;;;5032697;28;20036;-64